This is the latest recevied weather packets stored in our database for station/object EB5AGF-13. If no packets are shown the sender has not sent any weather packets the latest 10 day(s).
| Time | Temp. | Humidity | Pressure | Rain* | Wind** | Luminosity | Snow |
|---|---|---|---|---|---|---|---|
| 1777975800 | 22.22° C | 59% | 1009.4 hPa | 0 mm | 2.68 m/s, 200° | 606 W/m² | - |
| 1777975496 | 22.22° C | 57% | 1009.4 hPa | 0 mm | 2.24 m/s, 211° | 565 W/m² | - |
| 1777975172 | 22.22° C | 57% | 1009.6 hPa | 0 mm | 3.13 m/s, 183° | 577 W/m² | - |
| 1777974871 | 22.78° C | 56% | 1009.3 hPa | 0 mm | 2.24 m/s, 230° | 540 W/m² | - |
| 1777974567 | 23.33° C | 50% | 1009.2 hPa | 0 mm | 3.13 m/s, 189° | 543 W/m² | - |
| 1777974264 | 23.33° C | 45% | 1009.4 hPa | 0 mm | 1.34 m/s, 287° | 533 W/m² | - |
| 1777973961 | 22.78° C | 44% | 1009.4 hPa | 0 mm | 3.13 m/s, 186° | 509 W/m² | - |
| 1777973640 | 23.89° C | 46% | 1009.3 hPa | 0 mm | 1.79 m/s, 176° | 509 W/m² | - |
| 1777973336 | 22.78° C | 43% | 1009.3 hPa | 0 mm | 0.45 m/s, 203° | 510 W/m² | - |
| 1777973032 | 23.33° C | 43% | 1009.5 hPa | 0 mm | 2.68 m/s, 186° | 494 W/m² | - |
| 1777972728 | 23.33° C | 42% | 1009.2 hPa | 0 mm | 0.45 m/s, 215° | 471 W/m² | - |
| 1777972424 | 22.78° C | 43% | 1009.5 hPa | 0 mm | 2.24 m/s, 181° | 448 W/m² | - |
| 1777972120 | 22.22° C | 46% | 1009.3 hPa | 0 mm | 3.13 m/s, 165° | 433 W/m² | - |
| 1777971812 | 22.22° C | 46% | 1009.2 hPa | 0 mm | 0.89 m/s, 208° | 434 W/m² | - |
| 1777971511 | 22.78° C | 47% | 1009.4 hPa | 0 mm | 1.34 m/s, 123° | 433 W/m² | - |
| 1777971208 | 22.22° C | 47% | 1009.3 hPa | 0 mm | 1.34 m/s, 186° | 428 W/m² | - |
| 1777970904 | 22.22° C | 47% | 1009.4 hPa | 0 mm | 2.24 m/s, 214° | 418 W/m² | - |
| 1777970600 | 22.78° C | 46% | 1009.3 hPa | 0 mm | 0.89 m/s, 216° | 405 W/m² | - |
| 1777970295 | 22.78° C | 47% | 1009.2 hPa | 0 mm | 0.89 m/s, 285° | 392 W/m² | - |
| 1777969992 | 22.22° C | 49% | 1009.3 hPa | 0 mm | 0 m/s | 358 W/m² | - |
| 1777969687 | 22.22° C | 51% | 1009.4 hPa | 0 mm | 0.45 m/s, 222° | 364 W/m² | - |
| 1777969352 | 22.78° C | 52% | 1009.3 hPa | 0 mm | 0 m/s | 341 W/m² | - |
| 1777969017 | 22.22° C | 52% | 1009.3 hPa | 0 mm | 0 m/s | 332 W/m² | - |
| 1777968712 | 22.22° C | 53% | 1009.1 hPa | 0 mm | 0.89 m/s, 204° | 321 W/m² | - |
| 1777968408 | 21.67° C | 52% | 1009.5 hPa | 0 mm | 1.34 m/s, 196° | 309 W/m² | - |
* Rain latest hour (hover to see other rain measurements)
** Current wind speed in m/s (hover to see current wind gust speed)